Time;durP1;ratioP1;P1;durP2;ratioP2;P2;SDS_P1;SDS_P2;PMS_P1;PMS_P2;Temp;Humidity;BMP_temperature;BMP_pressure;BME280_temperature;BME280_humidity;BME280_pressure;Samples;Min_cycle;Max_cycle;Signal;HPM_P1;HPM_P2
2023/05/04 00:01:45;;;;;;;4.57;3.67;;;8.20;99.90;;;;;;4989776;28;20497;-81
2023/05/04 00:04:12;;;;;;;4.53;2.97;;;8.30;99.90;;;;;;5009893;28;20041;-81
2023/05/04 00:06:38;;;;;;;8.13;4.57;;;8.30;99.90;;;;;;4988048;28;20049;-81
2023/05/04 00:09:05;;;;;;;5.47;2.67;;;8.20;99.90;;;;;;4990949;28;20033;-81
2023/05/04 00:11:31;;;;;;;5.65;3.63;;;8.20;99.90;;;;;;4988927;28;20045;-80
2023/05/04 00:13:57;;;;;;;5.95;3.28;;;8.20;99.90;;;;;;5009141;28;20053;-82
2023/05/04 00:16:23;;;;;;;4.95;3.17;;;8.20;99.90;;;;;;4991017;28;20160;-81
2023/05/04 00:18:48;;;;;;;5.15;3.15;;;8.20;99.90;;;;;;4988534;28;20133;-81
2023/05/04 00:21:14;;;;;;;4.07;2.90;;;8.20;99.90;;;;;;4972937;28;20059;-81
2023/05/04 00:23:39;;;;;;;6.00;2.55;;;8.20;99.90;;;;;;5009354;28;20041;-81
2023/05/04 00:26:05;;;;;;;5.38;2.72;;;8.10;99.90;;;;;;4988486;28;20021;-80
2023/05/04 00:28:31;;;;;;;6.28;2.90;;;8.10;99.90;;;;;;5009328;28;20030;-80
2023/05/04 00:30:57;;;;;;;4.32;2.72;;;8.20;99.90;;;;;;4991240;28;20064;-81
2023/05/04 00:33:22;;;;;;;3.00;2.35;;;8.20;99.90;;;;;;5008661;28;20495;-81
2023/05/04 00:35:48;;;;;;;3.38;2.13;;;8.10;99.90;;;;;;4991826;28;20029;-81
2023/05/04 00:38:15;;;;;;;3.13;2.13;;;8.10;99.90;;;;;;5009297;28;20502;-81
2023/05/04 00:40:41;;;;;;;3.45;2.90;;;8.10;99.90;;;;;;5009077;28;20032;-81
2023/05/04 00:43:07;;;;;;;4.93;2.08;;;8.10;99.90;;;;;;4991113;28;20474;-81
2023/05/04 00:45:33;;;;;;;3.15;2.25;;;8.10;99.90;;;;;;4991826;28;20028;-81
2023/05/04 00:47:59;;;;;;;3.67;2.83;;;8.10;99.90;;;;;;4991386;28;20026;-81
2023/05/04 00:50:27;;;;;;;3.83;2.50;;;8.00;99.90;;;;;;4990707;28;20052;-81
2023/05/04 00:52:56;;;;;;;4.32;2.60;;;8.00;99.90;;;;;;4989709;28;20033;-80
2023/05/04 00:55:22;;;;;;;3.47;2.80;;;8.00;99.90;;;;;;5008026;28;20100;-81
2023/05/04 00:57:49;;;;;;;3.85;2.60;;;7.90;99.90;;;;;;4991047;28;20030;-80
2023/05/04 01:00:15;;;;;;;5.00;3.10;;;7.90;99.90;;;;;;5008796;28;20034;-82
2023/05/04 01:02:41;;;;;;;4.57;2.40;;;7.90;99.90;;;;;;5007309;28;21258;-81
2023/05/04 01:05:08;;;;;;;4.53;2.92;;;7.90;99.90;;;;;;5009038;28;20042;-81
2023/05/04 01:08:00;;;;;;;5.47;2.65;;;7.80;99.90;;;;;;4989280;28;20022;-79
2023/05/04 01:10:33;;;;;;;4.57;3.10;;;7.70;99.90;;;;;;4990879;28;20030;-81
2023/05/04 01:13:11;;;;;;;4.15;3.08;;;7.70;99.90;;;;;;4987844;28;20021;-82
2023/05/04 01:15:38;;;;;;;4.13;2.40;;;7.70;99.90;;;;;;4983622;28;20491;-81
2023/05/04 01:18:04;;;;;;;3.58;2.22;;;7.60;99.90;;;;;;4986266;28;20027;-81
2023/05/04 01:20:31;;;;;;;4.03;2.70;;;7.60;99.90;;;;;;4983661;28;20533;-81
2023/05/04 01:22:58;;;;;;;4.45;2.53;;;7.60;99.90;;;;;;4971962;28;20030;-82
2023/05/04 01:25:34;;;;;;;3.78;2.40;;;7.50;99.90;;;;;;4992888;28;20534;-81
2023/05/04 01:28:10;;;;;;;4.95;3.30;;;7.50;99.90;;;;;;4974528;28;20025;-81
2023/05/04 01:30:43;;;;;;;4.28;2.70;;;7.50;99.90;;;;;;4984270;28;20031;-81
2023/05/04 01:33:09;;;;;;;3.63;2.53;;;7.50;99.90;;;;;;4983620;28;20030;-81
2023/05/04 01:35:36;;;;;;;2.90;1.92;;;7.50;99.90;;;;;;4991133;28;20379;-81
2023/05/04 01:38:02;;;;;;;4.45;2.40;;;7.40;99.90;;;;;;4993408;28;20025;-82
2023/05/04 01:40:28;;;;;;;3.00;2.42;;;7.40;99.90;;;;;;4991040;28;20487;-81
2023/05/04 01:42:55;;;;;;;4.28;2.70;;;7.40;99.90;;;;;;4987969;28;20082;-80
2023/05/04 01:45:21;;;;;;;3.40;2.72;;;7.40;99.90;;;;;;4991423;28;20038;-81
2023/05/04 01:47:47;;;;;;;4.97;2.53;;;7.40;99.90;;;;;;4987731;28;20062;-81
2023/05/04 01:50:13;;;;;;;2.33;1.10;;;7.30;99.90;;;;;;4987624;28;20121;-81
2023/05/04 01:52:38;;;;;;;4.15;2.00;;;7.30;99.90;;;;;;4974883;28;20113;-82
2023/05/04 01:55:05;;;;;;;5.28;2.28;;;7.30;99.90;;;;;;4985955;28;20026;-81
2023/05/04 01:57:31;;;;;;;4.43;2.97;;;7.30;99.90;;;;;;4974800;28;20038;-81
2023/05/04 01:59:57;;;;;;;4.13;2.22;;;7.20;99.90;;;;;;4974840;28;20037;-81
2023/05/04 02:02:23;;;;;;;3.03;2.03;;;7.20;99.90;;;;;;4990124;28;20034;-81
2023/05/04 02:04:49;;;;;;;3.90;3.03;;;7.20;99.90;;;;;;4974409;28;20031;-80
2023/05/04 02:07:15;;;;;;;3.50;1.98;;;7.10;99.90;;;;;;4992529;28;20018;-81
2023/05/04 02:09:42;;;;;;;3.20;2.35;;;7.10;99.90;;;;;;4974818;28;20034;-81
2023/05/04 02:12:07;;;;;;;3.53;2.70;;;7.00;99.90;;;;;;4991145;28;20029;-81
2023/05/04 02:14:33;;;;;;;3.78;2.33;;;7.00;99.90;;;;;;4973956;28;20077;-81
2023/05/04 02:16:59;;;;;;;3.97;2.70;;;6.90;99.90;;;;;;4988202;28;20410;-81
2023/05/04 02:19:24;;;;;;;2.95;1.73;;;6.90;99.90;;;;;;4975291;28;20521;-81
2023/05/04 02:21:51;;;;;;;4.32;2.85;;;6.90;99.90;;;;;;4990201;28;20425;-81
2023/05/04 02:24:17;;;;;;;4.68;2.22;;;6.90;99.90;;;;;;4990909;28;20177;-81
2023/05/04 02:26:43;;;;;;;6.18;2.40;;;6.90;99.90;;;;;;4990410;28;20129;-81
2023/05/04 02:29:08;;;;;;;3.97;2.13;;;6.90;99.90;;;;;;4974267;28;20406;-81
2023/05/04 02:31:34;;;;;;;5.45;2.50;;;6.90;99.90;;;;;;4987356;28;20035;-82
2023/05/04 02:34:01;;;;;;;3.17;1.80;;;6.80;99.90;;;;;;4970982;28;20034;-81
2023/05/04 02:36:29;;;;;;;2.20;1.67;;;6.90;99.90;;;;;;4974436;28;20037;-81
2023/05/04 02:38:54;;;;;;;2.83;2.00;;;6.80;99.90;;;;;;4989574;28;20045;-81
2023/05/04 02:41:20;;;;;;;5.85;2.75;;;6.80;99.90;;;;;;4973935;28;20478;-81
2023/05/04 02:43:46;;;;;;;3.40;2.00;;;6.80;99.90;;;;;;4990587;28;20061;-82
2023/05/04 02:46:12;;;;;;;3.47;2.13;;;6.80;99.90;;;;;;4974252;28;20098;-81
2023/05/04 02:48:38;;;;;;;4.57;2.10;;;6.70;99.90;;;;;;4970842;28;20115;-81
2023/05/04 02:51:04;;;;;;;3.35;2.13;;;6.70;99.90;;;;;;4990008;28;20066;-81
2023/05/04 02:53:30;;;;;;;2.97;2.00;;;6.60;99.90;;;;;;4970741;28;20026;-81
2023/05/04 02:55:56;;;;;;;4.05;2.50;;;6.60;99.90;;;;;;4973485;28;20077;-81
2023/05/04 02:58:21;;;;;;;4.38;2.38;;;6.60;99.90;;;;;;4973950;28;20042;-81
2023/05/04 03:00:51;;;;;;;5.40;2.33;;;6.60;99.90;;;;;;4973846;28;20034;-81
2023/05/04 03:03:17;;;;;;;3.42;1.92;;;6.60;99.90;;;;;;4970956;28;20034;-81
2023/05/04 03:05:42;;;;;;;2.95;1.98;;;6.50;99.90;;;;;;4973638;28;20182;-81
2023/05/04 03:08:09;;;;;;;3.35;1.98;;;6.50;99.90;;;;;;4974379;28;20032;-81
2023/05/04 03:10:35;;;;;;;2.72;1.30;;;6.50;99.90;;;;;;4972297;28;20034;-81
2023/05/04 03:13:04;;;;;;;2.67;1.75;;;6.60;99.90;;;;;;4989663;28;20161;-81
2023/05/04 03:15:33;;;;;;;3.53;1.75;;;6.50;99.90;;;;;;4980922;28;20065;-81
2023/05/04 03:17:59;;;;;;;2.72;1.70;;;6.50;99.90;;;;;;4972460;28;20108;-81
2023/05/04 03:20:25;;;;;;;3.38;1.52;;;6.50;99.90;;;;;;4989196;28;20034;-81
2023/05/04 03:22:51;;;;;;;3.17;1.48;;;6.50;99.90;;;;;;4969198;28;20029;-82
2023/05/04 03:25:17;;;;;;;4.68;2.00;;;6.50;99.90;;;;;;4972908;28;20085;-80
2023/05/04 03:27:43;;;;;;;4.18;2.40;;;6.50;99.90;;;;;;4989686;28;20035;-81
2023/05/04 03:30:09;;;;;;;3.55;2.33;;;6.40;99.90;;;;;;4973305;28;20030;-81
2023/05/04 03:32:35;;;;;;;3.65;2.25;;;6.40;99.90;;;;;;4973346;28;20026;-81
2023/05/04 03:35:01;;;;;;;2.53;1.88;;;6.40;99.90;;;;;;4989420;28;20080;-80
2023/05/04 03:37:27;;;;;;;4.00;2.20;;;6.40;99.90;;;;;;4973025;28;20022;-81
2023/05/04 03:39:52;;;;;;;5.47;2.17;;;6.30;99.90;;;;;;4988492;28;20561;-81
2023/05/04 03:42:18;;;;;;;3.83;2.13;;;6.30;99.90;;;;;;4990702;28;20030;-81
2023/05/04 03:44:46;;;;;;;3.35;2.03;;;6.30;99.90;;;;;;4989166;28;20034;-81
2023/05/04 03:47:11;;;;;;;4.30;2.17;;;6.30;99.90;;;;;;4985772;28;20083;-81
2023/05/04 03:49:37;;;;;;;2.63;1.70;;;6.30;99.90;;;;;;4972596;28;20030;-81
2023/05/04 03:52:07;;;;;;;2.97;1.95;;;6.30;99.90;;;;;;4986902;28;20471;-81
2023/05/04 03:54:35;;;;;;;2.65;1.77;;;6.30;99.90;;;;;;4987312;28;20035;-81
2023/05/04 03:57:03;;;;;;;2.75;1.50;;;6.20;99.90;;;;;;4986719;28;20040;-81
2023/05/04 03:59:29;;;;;;;3.83;1.73;;;6.20;99.90;;;;;;5005179;28;20034;-81
2023/05/04 04:01:55;;;;;;;3.28;2.10;;;6.20;99.90;;;;;;4973133;28;20026;-81
2023/05/04 04:04:20;;;;;;;3.33;2.20;;;6.20;99.90;;;;;;4988815;28;20368;-81
2023/05/04 04:06:46;;;;;;;4.57;2.22;;;6.10;99.90;;;;;;4969470;28;20035;-81
2023/05/04 04:09:12;;;;;;;3.65;2.25;;;6.10;99.90;;;;;;4987542;28;20037;-81
2023/05/04 04:11:38;;;;;;;4.10;2.90;;;6.10;99.90;;;;;;4985589;28;20030;-82
2023/05/04 04:14:03;;;;;;;3.13;2.25;;;6.10;99.90;;;;;;4987372;28;20133;-81
2023/05/04 04:16:29;;;;;;;3.35;2.08;;;6.10;99.90;;;;;;4987414;28;20026;-81
2023/05/04 04:18:55;;;;;;;3.90;2.00;;;6.10;99.90;;;;;;4989146;28;20070;-81
2023/05/04 04:21:20;;;;;;;3.65;2.08;;;6.10;99.90;;;;;;4988153;28;20030;-81
2023/05/04 04:23:46;;;;;;;3.58;2.47;;;6.10;99.90;;;;;;4981615;28;20038;-81
2023/05/04 04:26:12;;;;;;;2.75;1.75;;;6.10;99.90;;;;;;4972536;28;20062;-82
2023/05/04 04:28:38;;;;;;;3.35;2.08;;;6.10;99.90;;;;;;4971908;28;20113;-81
2023/05/04 04:31:04;;;;;;;3.97;2.10;;;6.10;99.90;;;;;;4988146;28;20117;-81
2023/05/04 04:33:29;;;;;;;2.85;2.08;;;6.20;99.90;;;;;;4980342;28;20459;-81
2023/05/04 04:35:55;;;;;;;4.70;2.20;;;6.10;99.90;;;;;;4987699;28;20042;-81
2023/05/04 04:38:21;;;;;;;3.40;2.33;;;6.20;99.90;;;;;;4988379;28;20046;-82
2023/05/04 04:40:46;;;;;;;4.70;2.50;;;6.20;99.90;;;;;;4969116;28;20045;-81
2023/05/04 04:43:13;;;;;;;4.18;2.58;;;6.20;99.90;;;;;;4984254;28;20022;-80
2023/05/04 04:45:40;;;;;;;4.50;3.10;;;6.30;99.90;;;;;;4989073;28;20037;-81
2023/05/04 04:48:06;;;;;;;3.65;2.47;;;6.20;99.90;;;;;;4985232;28;20026;-81
2023/05/04 04:50:31;;;;;;;3.58;1.92;;;6.30;99.90;;;;;;4986533;28;20027;-81
2023/05/04 04:52:57;;;;;;;4.45;1.98;;;6.40;99.90;;;;;;4985593;28;20027;-81
2023/05/04 04:55:24;;;;;;;3.22;2.47;;;6.40;99.90;;;;;;4986481;28;20027;-81
2023/05/04 04:57:51;;;;;;;5.93;3.22;;;6.50;99.90;;;;;;4968395;28;20030;-80
2023/05/04 05:00:18;;;;;;;3.70;2.63;;;6.60;99.90;;;;;;4990618;28;20483;-81
2023/05/04 05:02:44;;;;;;;4.05;2.72;;;6.70;99.90;;;;;;4992434;28;20038;-81
2023/05/04 05:05:11;;;;;;;3.15;2.38;;;6.70;99.90;;;;;;5007781;28;20069;-81
2023/05/04 05:07:37;;;;;;;2.92;2.13;;;6.70;99.90;;;;;;4972374;28;20494;-80
2023/05/04 05:10:03;;;;;;;3.75;2.08;;;6.80;99.90;;;;;;4993246;28;20045;-81
2023/05/04 05:12:29;;;;;;;4.32;2.80;;;6.80;99.90;;;;;;4973487;28;20472;-81
2023/05/04 05:14:54;;;;;;;4.07;3.25;;;6.90;99.90;;;;;;5004718;28;20143;-81
2023/05/04 05:17:20;;;;;;;5.13;3.58;;;6.90;99.90;;;;;;4995830;28;20026;-81
2023/05/04 05:19:45;;;;;;;3.90;3.08;;;7.00;99.90;;;;;;4955746;28;20721;-81
2023/05/04 05:22:11;;;;;;;5.25;2.78;;;7.00;99.90;;;;;;4979026;28;20569;-81
2023/05/04 05:24:37;;;;;;;6.03;4.07;;;7.10;99.90;;;;;;4972998;28;20045;-81
2023/05/04 05:27:03;;;;;;;3.70;2.92;;;7.10;99.90;;;;;;4974141;28;20079;-81
2023/05/04 05:29:28;;;;;;;4.15;2.33;;;7.20;99.90;;;;;;4985781;28;20034;-82
2023/05/04 05:31:54;;;;;;;3.72;2.70;;;7.20;99.90;;;;;;4990800;28;20049;-81
2023/05/04 05:34:20;;;;;;;4.32;2.90;;;7.30;99.90;;;;;;4990870;28;20473;-81
2023/05/04 05:36:47;;;;;;;4.30;2.90;;;7.40;99.90;;;;;;4991650;28;20037;-81
2023/05/04 05:39:12;;;;;;;4.68;3.03;;;7.30;99.90;;;;;;4974150;28;20089;-81
2023/05/04 05:41:38;;;;;;;5.18;3.58;;;7.40;99.90;;;;;;4969710;28;20114;-81
2023/05/04 05:44:04;;;;;;;5.13;3.47;;;7.50;99.90;;;;;;4989887;28;20056;-81
2023/05/04 05:46:29;;;;;;;5.28;3.17;;;7.60;99.90;;;;;;4990795;28;20026;-82
2023/05/04 05:48:55;;;;;;;4.03;2.60;;;7.60;99.90;;;;;;4985792;28;20026;-81
2023/05/04 05:51:21;;;;;;;3.17;2.30;;;7.70;99.90;;;;;;4991231;28;20061;-81
2023/05/04 05:53:46;;;;;;;4.72;2.97;;;7.70;99.90;;;;;;4974129;28;20398;-81
2023/05/04 05:56:13;;;;;;;3.60;2.90;;;7.80;99.90;;;;;;4967724;28;20497;-81
2023/05/04 05:58:39;;;;;;;3.72;2.33;;;7.90;99.90;;;;;;4969913;28;20285;-81
2023/05/04 06:01:05;;;;;;;5.45;4.07;;;8.00;99.90;;;;;;4991404;28;20032;-82
2023/05/04 06:03:31;;;;;;;4.72;2.92;;;8.10;99.90;;;;;;4975341;28;20034;-82
2023/05/04 06:05:56;;;;;;;4.30;2.47;;;8.20;99.90;;;;;;4978143;28;20042;-82
2023/05/04 06:08:22;;;;;;;3.00;2.30;;;8.30;99.90;;;;;;4977761;28;20026;-81
2023/05/04 06:10:49;;;;;;;4.43;2.60;;;8.50;99.90;;;;;;4990210;28;20069;-82
2023/05/04 06:13:15;;;;;;;3.63;2.08;;;8.70;99.90;;;;;;5008440;28;20037;-82
2023/05/04 06:15:40;;;;;;;5.25;2.38;;;8.80;99.90;;;;;;4990836;28;20046;-82
2023/05/04 06:18:06;;;;;;;3.92;2.45;;;8.90;99.90;;;;;;4991458;28;20497;-82
2023/05/04 06:20:32;;;;;;;4.75;2.20;;;9.20;99.90;;;;;;4991657;28;20030;-82
2023/05/04 06:22:57;;;;;;;2.88;1.98;;;9.30;99.90;;;;;;4993331;28;20033;-82
2023/05/04 06:25:23;;;;;;;5.25;2.60;;;9.60;99.90;;;;;;4991586;28;20034;-81
2023/05/04 06:27:49;;;;;;;4.32;2.63;;;9.70;99.90;;;;;;4989292;28;20422;-82
2023/05/04 06:30:15;;;;;;;2.92;2.40;;;9.90;99.90;;;;;;4990829;28;20038;-83
2023/05/04 06:32:41;;;;;;;4.55;2.60;;;10.10;99.90;;;;;;4978668;28;20030;-81
2023/05/04 06:35:10;;;;;;;3.33;1.83;;;10.20;99.90;;;;;;5010011;28;20037;-82
2023/05/04 06:37:36;;;;;;;3.07;2.20;;;10.40;99.90;;;;;;5009121;28;20033;-81
2023/05/04 06:40:03;;;;;;;4.75;1.98;;;10.50;99.90;;;;;;5009755;28;20137;-81
2023/05/04 06:42:30;;;;;;;2.83;1.95;;;10.60;99.90;;;;;;4990104;28;20537;-82
2023/05/04 06:44:57;;;;;;;3.65;1.75;;;10.70;99.90;;;;;;4988675;28;20045;-83
2023/05/04 06:47:22;;;;;;;2.67;1.90;;;10.90;99.90;;;;;;4988924;28;20032;-82
2023/05/04 06:49:48;;;;;;;2.60;1.23;;;11.00;99.90;;;;;;4990009;28;20037;-82
2023/05/04 06:52:14;;;;;;;3.22;1.42;;;11.10;99.90;;;;;;5007855;28;20022;-83
2023/05/04 06:54:39;;;;;;;2.95;1.85;;;11.10;99.90;;;;;;4988639;28;20120;-81
2023/05/04 06:57:05;;;;;;;6.13;2.65;;;11.20;99.90;;;;;;4990552;28;20038;-81
2023/05/04 06:59:31;;;;;;;3.20;1.90;;;11.30;99.90;;;;;;5003218;28;20614;-82
2023/05/04 07:01:57;;;;;;;2.70;1.80;;;11.40;99.90;;;;;;4989849;28;20022;-82
2023/05/04 07:04:22;;;;;;;2.22;1.40;;;11.40;99.90;;;;;;4989566;28;20052;-82
2023/05/04 07:06:51;;;;;;;3.17;2.03;;;11.70;99.90;;;;;;4973162;28;20026;-82
2023/05/04 07:09:21;;;;;;;3.10;1.25;;;11.70;99.90;;;;;;5005374;28;20025;-82
2023/05/04 07:11:47;;;;;;;2.80;1.23;;;11.70;99.90;;;;;;4988570;28;20038;-83
2023/05/04 07:14:14;;;;;;;2.78;1.35;;;11.80;99.90;;;;;;4990898;28;20057;-82
2023/05/04 07:16:40;;;;;;;3.55;1.65;;;12.10;99.90;;;;;;5007571;28;20117;-82
2023/05/04 07:19:05;;;;;;;2.10;1.08;;;12.10;99.90;;;;;;4973780;28;20113;-83
2023/05/04 07:21:31;;;;;;;2.10;1.45;;;12.10;99.90;;;;;;4988974;28;20108;-82
2023/05/04 07:23:57;;;;;;;2.45;1.52;;;12.10;99.90;;;;;;4969262;28;20084;-82
2023/05/04 07:26:23;;;;;;;3.75;1.73;;;12.20;99.90;;;;;;4992160;28;20018;-82
2023/05/04 07:28:49;;;;;;;2.20;1.50;;;12.30;99.90;;;;;;4975547;28;20394;-83
2023/05/04 07:31:14;;;;;;;3.58;1.98;;;12.40;99.90;;;;;;4971271;28;20037;-83
2023/05/04 07:33:40;;;;;;;3.28;1.70;;;12.60;99.90;;;;;;4985396;28;20066;-83
2023/05/04 07:36:06;;;;;;;2.47;1.40;;;12.50;99.90;;;;;;5005317;28;20026;-81
2023/05/04 07:38:33;;;;;;;2.95;1.33;;;12.70;99.90;;;;;;5005226;28;20041;-83
2023/05/04 07:40:58;;;;;;;3.67;1.60;;;12.80;99.90;;;;;;4966486;28;20386;-82
2023/05/04 07:43:24;;;;;;;3.30;1.33;;;12.70;99.90;;;;;;5006810;28;20022;-82
2023/05/04 07:45:52;;;;;;;1.85;1.00;;;12.70;99.90;;;;;;4964796;28;20033;-83
2023/05/04 07:48:18;;;;;;;2.08;1.15;;;13.00;99.90;;;;;;4989741;28;20030;-83
2023/05/04 07:50:44;;;;;;;3.05;1.58;;;13.10;99.90;;;;;;4971344;28;20643;-83
2023/05/04 07:53:09;;;;;;;7.25;2.30;;;13.20;99.90;;;;;;5004858;28;20030;-82
2023/05/04 07:55:35;;;;;;;3.58;1.20;;;13.20;99.90;;;;;;4972492;28;20026;-82
2023/05/04 07:58:01;;;;;;;2.97;1.20;;;13.40;99.90;;;;;;5003367;28;20375;-82
2023/05/04 08:00:27;;;;;;;2.97;1.40;;;13.60;99.90;;;;;;4987525;28;20033;-82
2023/05/04 08:02:53;;;;;;;2.75;1.27;;;13.60;99.90;;;;;;4973075;28;20030;-82
2023/05/04 08:05:19;;;;;;;2.47;0.93;;;13.80;99.90;;;;;;4970924;28;20038;-82
2023/05/04 08:07:45;;;;;;;3.30;0.90;;;14.00;99.90;;;;;;4983409;28;20048;-82
2023/05/04 08:10:11;;;;;;;1.60;1.02;;;14.30;99.90;;;;;;4968972;28;20061;-82
2023/05/04 08:12:39;;;;;;;2.95;1.13;;;14.50;99.90;;;;;;4986854;28;20037;-82
2023/05/04 08:15:06;;;;;;;3.35;1.00;;;14.70;99.90;;;;;;5005715;28;20451;-83
2023/05/04 08:17:33;;;;;;;2.00;1.15;;;14.90;99.90;;;;;;4974002;28;20041;-82
2023/05/04 08:20:00;;;;;;;3.25;1.17;;;15.10;99.90;;;;;;5006825;28;20053;-81
2023/05/04 08:22:25;;;;;;;2.28;1.65;;;15.10;99.90;;;;;;4955305;28;20624;-81
2023/05/04 08:24:51;;;;;;;2.90;1.40;;;14.90;99.90;;;;;;4963155;28;20046;-82
2023/05/04 08:27:17;;;;;;;2.13;1.10;;;14.90;99.90;;;;;;4968061;28;20045;-82
2023/05/04 08:29:43;;;;;;;4.25;1.05;;;15.10;99.90;;;;;;4983912;28;20038;-82
2023/05/04 08:32:08;;;;;;;2.92;1.27;;;15.50;99.90;;;;;;4965998;28;20033;-82
2023/05/04 08:34:35;;;;;;;1.60;0.77;;;15.80;99.90;;;;;;4966597;28;20040;-82
2023/05/04 08:37:01;;;;;;;1.88;1.00;;;15.60;99.90;;;;;;4974021;28;20022;-82
2023/05/04 08:39:26;;;;;;;2.80;1.10;;;15.30;99.90;;;;;;4963634;28;20485;-82
2023/05/04 08:41:52;;;;;;;2.95;0.70;;;15.40;99.90;;;;;;4974467;28;20041;-83
2023/05/04 08:44:18;;;;;;;1.20;0.50;;;15.70;99.90;;;;;;4973761;28;20045;-82
2023/05/04 08:46:51;;;;;;;2.95;0.80;;;16.30;99.90;;;;;;4990740;28;20056;-82
2023/05/04 08:49:22;;;;;;;2.03;0.70;;;16.10;99.90;;;;;;4987877;28;20045;-82
2023/05/04 08:51:49;;;;;;;3.33;0.60;;;16.00;99.90;;;;;;4990160;28;20030;-84
2023/05/04 08:54:16;;;;;;;3.50;0.90;;;16.50;99.90;;;;;;4987534;28;20478;-82
2023/05/04 08:56:43;;;;;;;2.42;0.95;;;16.30;99.90;;;;;;4971312;28;20030;-83
2023/05/04 08:59:16;;;;;;;1.92;0.70;;;16.50;99.90;;;;;;4972604;28;20066;-84
2023/05/04 09:01:43;;;;;;;2.30;0.90;;;16.70;99.90;;;;;;4990695;28;20037;-83
2023/05/04 09:04:10;;;;;;;1.80;1.00;;;16.70;99.90;;;;;;4974635;28;20091;-83
2023/05/04 09:06:35;;;;;;;2.28;0.93;;;16.70;99.90;;;;;;4970672;28;20330;-82
2023/05/04 09:09:01;;;;;;;2.40;1.15;;;16.90;99.90;;;;;;4971799;28;20033;-82
2023/05/04 09:11:27;;;;;;;2.45;0.73;;;16.90;99.90;;;;;;4988865;28;20033;-82
2023/05/04 09:13:53;;;;;;;2.38;0.70;;;17.00;99.90;;;;;;4987331;28;20053;-83
2023/05/04 09:16:18;;;;;;;2.85;0.70;;;17.30;99.90;;;;;;4987930;28;20106;-83
2023/05/04 09:18:44;;;;;;;3.33;0.85;;;17.40;99.90;;;;;;4988811;28;20180;-83
2023/05/04 09:21:10;;;;;;;1.88;0.57;;;17.70;99.90;;;;;;4967786;28;20087;-82
2023/05/04 09:23:50;;;;;;;2.70;0.70;;;17.70;99.90;;;;;;4988603;28;20501;-83
2023/05/04 09:26:29;;;;;;;2.13;0.60;;;17.90;99.90;;;;;;4986873;28;20037;-81
2023/05/04 09:28:55;;;;;;;1.83;0.70;;;18.00;99.90;;;;;;4987517;28;20101;-83
2023/05/04 09:31:22;;;;;;;2.42;0.60;;;18.00;99.90;;;;;;4986263;28;20101;-82
2023/05/04 09:33:48;;;;;;;1.80;0.95;;;17.80;99.90;;;;;;4986578;28;20057;-82
2023/05/04 09:36:18;;;;;;;1.85;0.65;;;17.60;99.90;;;;;;4988180;28;20026;-83
2023/05/04 09:38:44;;;;;;;2.83;0.70;;;17.70;99.90;;;;;;4988150;28;20474;-83
2023/05/04 09:41:10;;;;;;;2.20;0.60;;;18.10;99.90;;;;;;4970596;28;20049;-83
2023/05/04 09:43:41;;;;;;;1.70;0.50;;;18.10;99.90;;;;;;4970908;28;20046;-83
2023/05/04 09:46:16;;;;;;;1.33;0.60;;;18.10;99.90;;;;;;5005320;28;20074;-83
2023/05/04 09:48:51;;;;;;;3.55;0.77;;;18.20;99.90;;;;;;4989766;28;20120;-82
2023/05/04 09:51:20;;;;;;;1.85;0.60;;;18.10;99.90;;;;;;4966633;28;20075;-83
2023/05/04 09:53:51;;;;;;;3.33;0.60;;;18.30;99.90;;;;;;5002343;28;20489;-83
2023/05/04 09:56:20;;;;;;;;;;;18.20;99.90;;;;;;4969351;28;20029;-83
2023/05/04 09:58:49;;;;;;;3.20;1.13;;;18.30;99.90;;;;;;4991082;28;20007;-83
2023/05/04 10:01:15;;;;;;;4.63;0.98;;;18.60;99.90;;;;;;4990293;28;20033;-83
2023/05/04 10:03:42;;;;;;;1.73;0.60;;;18.50;99.90;;;;;;5008337;28;20049;-83
2023/05/04 10:06:10;;;;;;;2.58;0.73;;;18.90;99.90;;;;;;4990745;28;20569;-82
2023/05/04 10:08:36;;;;;;;3.22;0.80;;;19.00;99.90;;;;;;4990776;28;20387;-84
2023/05/04 10:11:02;;;;;;;2.08;0.70;;;18.80;99.90;;;;;;5007342;28;20505;-83
2023/05/04 10:13:28;;;;;;;3.70;0.88;;;19.00;99.90;;;;;;4990931;28;20029;-83
2023/05/04 10:16:23;;;;;;;2.00;0.70;;;19.10;99.90;;;;;;4989952;28;20033;-84
2023/05/04 10:19:16;;;;;;;1.67;0.60;;;19.20;99.90;;;;;;4985849;28;20026;-84
2023/05/04 10:22:30;;;;;;;3.60;0.70;;;19.30;99.90;;;;;;4974635;28;20505;-83
2023/05/04 10:25:07;;;;;;;3.58;0.80;;;19.30;99.90;;;;;;4993295;28;20449;-82
2023/05/04 10:27:41;;;;;;;1.30;0.60;;;19.90;99.90;;;;;;4967720;28;20454;-83
2023/05/04 10:30:07;;;;;;;2.75;0.70;;;20.10;99.90;;;;;;4970323;28;20033;-83
2023/05/04 10:32:38;;;;;;;2.33;0.52;;;20.00;99.90;;;;;;5006274;28;20021;-83
2023/05/04 10:35:06;;;;;;;2.10;0.57;;;20.60;99.90;;;;;;4989993;28;20030;-87
2023/05/04 10:37:32;;;;;;;2.35;0.70;;;20.60;99.90;;;;;;4974138;28;20501;-83
2023/05/04 10:39:57;;;;;;;2.17;0.60;;;20.80;99.90;;;;;;4966632;28;20029;-83
2023/05/04 10:42:23;;;;;;;3.10;0.80;;;20.70;99.90;;;;;;4974536;28;20358;-83
2023/05/04 10:44:54;;;;;;;2.05;0.60;;;20.80;99.90;;;;;;4989212;28;20368;-82
2023/05/04 10:47:34;;;;;;;1.42;0.60;;;21.20;99.90;;;;;;4970400;28;20417;-84
2023/05/04 10:50:04;;;;;;;1.90;0.80;;;21.50;99.90;;;;;;4968982;28;20120;-83
2023/05/04 10:52:30;;;;;;;;;;;21.30;99.90;;;;;;4971971;28;20448;-84
2023/05/04 10:55:00;;;;;;;1.65;0.50;;;21.90;99.90;;;;;;4986119;28;19933;-83
2023/05/04 10:57:27;;;;;;;2.08;0.65;;;21.70;99.90;;;;;;4990768;28;20063;-84
2023/05/04 10:59:57;;;;;;;1.92;0.50;;;21.80;99.90;;;;;;4972342;28;20026;-84
2023/05/04 11:02:25;;;;;;;1.45;0.57;;;21.80;99.90;;;;;;4967851;28;20072;-83
2023/05/04 11:05:00;;;;;;;1.48;0.50;;;21.90;99.90;;;;;;4989546;28;20046;-84
2023/05/04 11:07:47;;;;;;;1.33;0.50;;;22.40;99.90;;;;;;4989328;28;20022;-84
2023/05/04 11:10:24;;;;;;;1.90;0.50;;;22.60;99.90;;;;;;4989975;28;20018;-84
2023/05/04 11:12:51;;;;;;;1.45;0.60;;;22.50;99.90;;;;;;4989401;28;20042;-83
2023/05/04 11:15:17;;;;;;;1.02;0.43;;;22.70;99.90;;;;;;4982522;28;20078;-84
2023/05/04 11:17:51;;;;;;;2.30;0.73;;;22.80;99.90;;;;;;4973651;28;20117;-84
2023/05/04 11:20:26;;;;;;;1.77;0.77;;;22.80;99.90;;;;;;4989558;28;20029;-82
2023/05/04 11:22:53;;;;;;;1.50;0.70;;;22.50;99.90;;;;;;4988631;28;20022;-83
2023/05/04 11:25:29;;;;;;;1.52;0.60;;;22.10;99.90;;;;;;4972093;28;20049;-83
2023/05/04 11:27:55;;;;;;;1.70;0.63;;;22.70;99.90;;;;;;4966068;28;20049;-84
2023/05/04 11:30:33;;;;;;;2.28;0.63;;;22.80;99.90;;;;;;4973992;28;20033;-84
2023/05/04 11:32:59;;;;;;;2.33;0.70;;;23.20;99.90;;;;;;4973039;28;20032;-84
2023/05/04 11:35:25;;;;;;;2.83;0.73;;;23.40;99.90;;;;;;4989046;28;20030;-83
2023/05/04 11:37:51;;;;;;;3.13;0.52;;;23.20;99.90;;;;;;4967839;28;20024;-84
2023/05/04 11:40:22;;;;;;;1.90;0.65;;;23.00;99.90;;;;;;4966876;28;20058;-83
2023/05/04 11:42:48;;;;;;;2.33;0.70;;;22.80;99.90;;;;;;4973131;28;20025;-82
2023/05/04 11:45:22;;;;;;;1.98;0.60;;;22.70;99.90;;;;;;4973389;28;20040;-84
2023/05/04 11:47:49;;;;;;;4.05;0.60;;;23.10;99.90;;;;;;5005577;28;20057;-83
2023/05/04 11:50:16;;;;;;;2.15;0.80;;;23.70;99.90;;;;;;5004952;28;20029;-84
2023/05/04 11:52:42;;;;;;;1.30;0.60;;;23.20;99.90;;;;;;4966997;28;20817;-84
2023/05/04 11:55:23;;;;;;;2.05;0.60;;;23.40;99.90;;;;;;4972064;28;20463;-83
2023/05/04 11:58:15;;;;;;;1.40;0.63;;;23.90;99.90;;;;;;4967306;28;20066;-83
2023/05/04 12:00:43;;;;;;;2.65;0.77;;;23.10;99.90;;;;;;4988437;28;20050;-83
2023/05/04 12:03:24;;;;;;;2.53;0.70;;;22.80;99.90;;;;;;5006327;28;20036;-83
2023/05/04 12:05:51;;;;;;;2.17;0.70;;;22.80;99.90;;;;;;5001474;28;20096;-83
2023/05/04 12:08:42;;;;;;;2.20;0.55;;;23.20;99.90;;;;;;5006677;28;20018;-84
2023/05/04 12:11:10;;;;;;;1.67;0.60;;;23.40;99.90;;;;;;4975491;28;20022;-86
2023/05/04 12:13:36;;;;;;;1.83;0.57;;;23.60;99.90;;;;;;4992133;28;20038;-86
2023/05/04 12:16:12;;;;;;;2.30;0.70;;;23.50;99.90;;;;;;4988268;28;20061;-85
2023/05/04 12:18:38;;;;;;;2.00;0.57;;;23.00;99.50;;;;;;4972134;28;20042;-85
2023/05/04 12:21:11;;;;;;;2.10;0.68;;;23.00;99.90;;;;;;5004448;28;20034;-86
2023/05/04 12:23:38;;;;;;;1.50;0.80;;;23.00;99.50;;;;;;4965158;28;20037;-87
2023/05/04 12:26:05;;;;;;;2.08;0.60;;;23.10;99.90;;;;;;4989060;28;20586;-87
2023/05/04 12:28:32;;;;;;;1.40;0.50;;;23.10;99.00;;;;;;4984313;28;20250;-85
2023/05/04 12:30:58;;;;;;;2.15;0.60;;;23.40;99.90;;;;;;4985838;28;20034;-86
2023/05/04 12:33:24;;;;;;;1.55;0.60;;;23.60;99.50;;;;;;4973292;28;20091;-86
2023/05/04 12:35:50;;;;;;;1.20;0.40;;;23.70;99.90;;;;;;4965163;28;20044;-85
2023/05/04 12:38:16;;;;;;;1.63;0.60;;;23.50;99.10;;;;;;4979058;28;20026;-85
2023/05/04 12:40:42;;;;;;;2.20;0.80;;;23.20;99.20;;;;;;4987662;28;20072;-87
2023/05/04 12:43:08;;;;;;;2.30;0.70;;;23.50;99.70;;;;;;4972447;28;20044;-85
2023/05/04 12:45:35;;;;;;;1.90;0.70;;;23.80;99.90;;;;;;4987925;28;20133;-86
2023/05/04 12:48:01;;;;;;;3.45;0.80;;;23.60;99.40;;;;;;4972146;28;20054;-85
2023/05/04 12:50:26;;;;;;;2.08;0.70;;;23.60;99.10;;;;;;4965851;28;20029;-85
2023/05/04 12:52:52;;;;;;;3.92;1.10;;;23.40;99.80;;;;;;4968030;28;20029;-86
2023/05/04 12:55:18;;;;;;;2.20;0.88;;;23.10;99.10;;;;;;4966483;28;20117;-85